createdAt,value
2018-09-20T00:00:24.806Z,0.00
2018-09-20T00:01:24.791Z,0.00
2018-09-20T00:02:24.795Z,0.00
2018-09-20T00:03:24.813Z,0.00
2018-09-20T00:04:24.857Z,0.00
2018-09-20T00:05:24.838Z,0.00
2018-09-20T00:06:24.820Z,0.00
2018-09-20T00:07:24.862Z,0.00
2018-09-20T00:08:24.916Z,0.00
2018-09-20T00:09:24.874Z,0.00
2018-09-20T00:10:24.892Z,0.00
2018-09-20T00:11:24.900Z,0.00
2018-09-20T00:12:24.902Z,0.00
2018-09-20T00:13:24.957Z,0.00
2018-09-20T00:14:24.919Z,0.00
2018-09-20T00:15:24.943Z,0.00
2018-09-20T00:16:24.963Z,0.00
2018-09-20T00:17:24.970Z,0.00
2018-09-20T00:18:25.013Z,0.00
2018-09-20T00:19:25.004Z,0.00
2018-09-20T00:20:25.030Z,0.00
2018-09-20T00:21:25.013Z,0.00
2018-09-20T00:22:25.081Z,0.00
2018-09-20T00:23:25.016Z,0.00
2018-09-20T00:24:25.084Z,0.00
2018-09-20T00:25:25.069Z,0.00
2018-09-20T00:26:25.132Z,0.00
2018-09-20T00:27:25.104Z,0.00
2018-09-20T00:28:25.114Z,0.00
2018-09-20T00:29:25.107Z,0.00
2018-09-20T00:30:25.172Z,0.00
2018-09-20T00:31:25.150Z,0.00
2018-09-20T00:32:25.133Z,0.00
2018-09-20T00:33:25.171Z,0.00
2018-09-20T00:34:25.188Z,0.00
2018-09-20T00:35:25.233Z,0.00
2018-09-20T00:36:25.194Z,0.00
2018-09-20T00:37:25.200Z,0.00
2018-09-20T00:38:25.225Z,0.00
2018-09-20T00:39:25.229Z,0.00
2018-09-20T00:40:25.269Z,0.00
2018-09-20T00:41:25.253Z,0.00
2018-09-20T00:42:25.287Z,0.00
2018-09-20T00:43:25.278Z,0.00
2018-09-20T00:44:25.304Z,0.00
2018-09-20T00:45:25.292Z,0.00
2018-09-20T00:46:25.326Z,0.00
2018-09-20T00:47:25.362Z,0.00
2018-09-20T00:48:25.323Z,0.00
2018-09-20T00:49:25.338Z,0.00
2018-09-20T00:50:25.369Z,0.00
2018-09-20T00:51:25.356Z,0.00
2018-09-20T00:52:25.430Z,0.00
2018-09-20T00:53:25.394Z,0.00
2018-09-20T00:54:25.404Z,0.00
2018-09-20T00:55:25.441Z,0.00
2018-09-20T00:56:25.441Z,0.00
2018-09-20T00:57:26.256Z,0.00
2018-09-20T00:58:25.446Z,0.00
2018-09-20T00:59:25.510Z,0.00
2018-09-20T01:00:25.668Z,0.00
2018-09-20T01:01:25.472Z,0.00
2018-09-20T01:02:25.505Z,0.00
2018-09-20T01:03:25.519Z,0.00
2018-09-20T01:04:25.681Z,0.00
2018-09-20T01:05:25.534Z,0.00
2018-09-20T01:06:25.580Z,0.00
2018-09-20T01:07:25.558Z,0.00
2018-09-20T01:08:25.570Z,0.00
2018-09-20T01:09:25.570Z,0.00
2018-09-20T01:10:25.633Z,0.00
2018-09-20T01:11:25.634Z,0.00
2018-09-20T01:12:25.616Z,0.00
2018-09-20T01:13:25.633Z,0.00
2018-09-20T01:14:25.639Z,0.00
2018-09-20T01:15:25.650Z,0.00
2018-09-20T01:16:25.679Z,0.00
2018-09-20T01:17:25.938Z,0.00
2018-09-20T01:18:25.667Z,0.00
2018-09-20T01:19:25.681Z,0.00
2018-09-20T01:20:25.692Z,0.00
2018-09-20T01:21:25.713Z,0.00
2018-09-20T01:22:25.723Z,0.00
2018-09-20T01:23:25.783Z,0.00
2018-09-20T01:24:25.749Z,0.00
2018-09-20T01:25:25.781Z,0.00
2018-09-20T01:26:25.766Z,0.00
2018-09-20T01:27:25.785Z,0.00
2018-09-20T01:28:25.858Z,0.00
2018-09-20T01:29:25.846Z,0.00
2018-09-20T01:30:25.889Z,0.00
2018-09-20T01:31:25.874Z,0.00
2018-09-20T01:32:25.867Z,0.00
2018-09-20T01:33:25.870Z,0.00
2018-09-20T01:34:25.888Z,0.00
2018-09-20T01:35:25.939Z,0.00
2018-09-20T01:36:25.980Z,0.00
2018-09-20T01:37:25.930Z,0.00
2018-09-20T01:38:25.923Z,0.00
2018-09-20T01:39:25.983Z,0.00
2018-09-20T01:40:25.947Z,0.00
2018-09-20T01:41:26.125Z,0.00
2018-09-20T01:42:25.946Z,0.00
2018-09-20T01:43:25.974Z,0.00
2018-09-20T01:44:25.961Z,0.00
2018-09-20T01:45:26.002Z,0.00
2018-09-20T01:46:26.001Z,0.00
2018-09-20T01:47:26.010Z,0.00
2018-09-20T01:48:26.114Z,0.00
2018-09-20T01:49:26.055Z,0.00
2018-09-20T01:50:26.112Z,0.00
2018-09-20T01:51:26.100Z,0.00
2018-09-20T01:52:26.323Z,0.00
2018-09-20T01:53:26.106Z,0.00
2018-09-20T01:54:26.135Z,0.00
2018-09-20T01:55:26.184Z,0.00
2018-09-20T01:56:26.124Z,0.00
2018-09-20T01:57:26.133Z,0.00
2018-09-20T01:58:26.173Z,0.00
2018-09-20T01:59:26.292Z,0.00
2018-09-20T02:00:26.170Z,0.00
2018-09-20T02:01:26.178Z,0.00
2018-09-20T02:02:26.239Z,0.00
2018-09-20T02:03:26.289Z,0.00
2018-09-20T02:04:26.263Z,0.00
2018-09-20T02:05:26.264Z,0.00
2018-09-20T02:06:26.239Z,0.00
2018-09-20T02:07:26.266Z,0.00
2018-09-20T02:08:26.267Z,0.00
2018-09-20T02:09:26.286Z,0.00
2018-09-20T02:10:26.275Z,0.00
2018-09-20T02:11:26.618Z,0.00
2018-09-20T02:12:26.309Z,0.00
2018-09-20T02:13:26.344Z,0.00
2018-09-20T02:14:26.330Z,0.00
2018-09-20T02:15:26.327Z,0.00
2018-09-20T02:16:26.405Z,0.00
2018-09-20T02:17:26.381Z,0.00
2018-09-20T02:18:26.355Z,0.00
2018-09-20T02:19:26.397Z,0.00
2018-09-20T02:20:26.384Z,0.00
2018-09-20T02:21:26.415Z,0.00
2018-09-20T02:22:26.404Z,0.00
2018-09-20T02:23:26.438Z,0.00
2018-09-20T02:24:26.459Z,0.00
2018-09-20T02:25:26.460Z,0.00
2018-09-20T02:26:26.471Z,0.00
2018-09-20T02:27:26.515Z,0.00
2018-09-20T02:28:26.487Z,0.00
2018-09-20T02:29:26.508Z,0.00
2018-09-20T02:30:27.325Z,0.00
2018-09-20T02:31:26.588Z,0.00
2018-09-20T02:32:26.759Z,0.00
2018-09-20T02:33:26.581Z,0.00
2018-09-20T02:34:26.556Z,0.00
2018-09-20T02:35:26.585Z,0.00
2018-09-20T02:36:27.414Z,0.00
2018-09-20T02:37:26.622Z,0.00
2018-09-20T02:38:26.759Z,0.00
2018-09-20T02:39:26.701Z,0.00
2018-09-20T02:40:26.616Z,0.00
2018-09-20T02:41:26.868Z,0.00
2018-09-20T02:42:26.649Z,0.00
2018-09-20T02:43:26.663Z,0.00
2018-09-20T02:44:26.726Z,0.00
2018-09-20T02:45:26.691Z,0.00
2018-09-20T02:46:26.700Z,0.00
2018-09-20T02:47:26.715Z,0.00
2018-09-20T02:48:26.721Z,0.00
2018-09-20T02:49:26.761Z,0.00
2018-09-20T02:50:26.796Z,0.00
2018-09-20T02:51:27.029Z,0.00
2018-09-20T02:52:26.784Z,0.00
2018-09-20T02:53:26.795Z,0.00
2018-09-20T02:54:26.796Z,0.00
2018-09-20T02:55:26.841Z,0.00
2018-09-20T02:56:26.818Z,0.00
2018-09-20T02:57:26.836Z,0.00
2018-09-20T02:58:26.838Z,0.00
2018-09-20T02:59:26.851Z,0.00
2018-09-20T03:00:26.867Z,0.00
2018-09-20T03:01:26.869Z,0.00
2018-09-20T03:02:26.900Z,0.00
2018-09-20T03:03:26.887Z,0.00
2018-09-20T03:04:26.946Z,0.00
2018-09-20T03:05:26.972Z,0.00
2018-09-20T03:06:26.923Z,0.00
2018-09-20T03:07:26.943Z,0.00
2018-09-20T03:08:26.938Z,0.00
2018-09-20T03:09:26.987Z,0.00
2018-09-20T03:10:27.001Z,0.00
2018-09-20T03:11:26.986Z,0.00
2018-09-20T03:12:27.015Z,0.00
2018-09-20T03:13:27.002Z,0.00
2018-09-20T03:14:27.038Z,0.00
2018-09-20T03:15:27.047Z,0.00
2018-09-20T03:16:27.065Z,0.00
2018-09-20T03:17:27.069Z,0.00
2018-09-20T03:18:27.083Z,0.00
2018-09-20T03:19:27.076Z,0.00
2018-09-20T03:20:27.130Z,0.00
2018-09-20T03:21:27.287Z,0.00
2018-09-20T03:22:27.185Z,0.00
2018-09-20T03:23:27.156Z,0.00
2018-09-20T03:24:27.153Z,0.00
2018-09-20T03:25:27.164Z,0.00
2018-09-20T03:26:27.175Z,0.00
2018-09-20T03:27:27.223Z,0.00
2018-09-20T03:28:27.227Z,0.00
2018-09-20T03:29:27.196Z,0.00
2018-09-20T03:30:27.332Z,0.00
2018-09-20T03:31:27.214Z,0.00
2018-09-20T03:32:27.223Z,0.00
2018-09-20T03:33:27.252Z,0.00
2018-09-20T03:34:27.290Z,0.00
2018-09-20T03:35:27.347Z,0.00
2018-09-20T03:36:27.284Z,0.00
2018-09-20T03:37:27.325Z,0.00
2018-09-20T03:38:27.319Z,0.00
2018-09-20T03:39:27.325Z,0.00
2018-09-20T03:40:27.347Z,0.00
2018-09-20T03:41:27.344Z,0.00
2018-09-20T03:42:27.345Z,0.00
2018-09-20T03:43:27.357Z,0.00
2018-09-20T03:44:27.436Z,0.00
2018-09-20T03:45:27.446Z,0.00
2018-09-20T03:46:27.394Z,0.00
2018-09-20T03:47:27.430Z,0.00
2018-09-20T03:48:27.413Z,0.00
2018-09-20T03:49:27.439Z,0.00
2018-09-20T03:50:27.451Z,0.00
2018-09-20T03:51:27.491Z,0.00
2018-09-20T03:52:34.416Z,0.00
2018-09-20T03:53:27.519Z,0.00
2018-09-20T03:54:27.473Z,0.00
2018-09-20T03:55:27.525Z,0.00
2018-09-20T03:56:27.615Z,0.00
2018-09-20T03:57:27.544Z,0.00
2018-09-20T03:58:27.544Z,0.00
2018-09-20T03:59:27.551Z,0.00
2018-09-20T04:00:27.548Z,0.00
2018-09-20T04:01:27.561Z,0.00
2018-09-20T04:02:27.579Z,0.00
2018-09-20T04:03:27.592Z,0.00
2018-09-20T04:04:28.423Z,0.00
2018-09-20T04:05:27.652Z,0.00
2018-09-20T04:06:27.654Z,0.00
2018-09-20T04:07:27.694Z,0.00
2018-09-20T04:08:27.645Z,0.00
2018-09-20T04:09:27.728Z,0.00
2018-09-20T04:10:27.672Z,0.00
2018-09-20T04:11:27.677Z,0.00
2018-09-20T04:12:27.711Z,0.00
2018-09-20T04:13:27.721Z,0.00
2018-09-20T04:14:27.731Z,0.00
2018-09-20T04:15:27.756Z,0.00
2018-09-20T04:16:27.776Z,0.00
2018-09-20T04:17:27.761Z,4.00
2018-09-20T04:18:27.752Z,0.00
2018-09-20T04:19:27.822Z,0.00
2018-09-20T04:20:27.819Z,4.00
2018-09-20T04:21:27.914Z,0.00
2018-09-20T04:22:27.781Z,4.00
2018-09-20T04:23:27.820Z,4.00
2018-09-20T04:24:27.844Z,4.00
2018-09-20T04:25:27.862Z,4.00
2018-09-20T04:26:27.826Z,4.00
2018-09-20T04:27:27.887Z,12.00
2018-09-20T04:28:27.895Z,12.00
2018-09-20T04:29:27.886Z,12.00
2018-09-20T04:30:28.883Z,12.00
2018-09-20T04:31:28.047Z,16.00
2018-09-20T04:32:27.928Z,16.00
2018-09-20T04:33:27.951Z,20.00
2018-09-20T04:34:27.974Z,24.00
2018-09-20T04:35:28.013Z,28.00
2018-09-20T04:36:28.033Z,36.00
2018-09-20T04:37:28.000Z,40.00
2018-09-20T04:38:27.957Z,48.00
2018-09-20T04:39:27.994Z,60.00
2018-09-20T04:40:27.997Z,64.00
2018-09-20T04:41:28.061Z,76.00
2018-09-20T04:42:28.093Z,88.00
2018-09-20T04:43:28.176Z,96.00
2018-09-20T04:44:28.024Z,104.00
2018-09-20T04:45:28.092Z,120.00
2018-09-20T04:46:28.063Z,132.00
2018-09-20T04:47:28.136Z,144.00
2018-09-20T04:48:28.098Z,156.00
2018-09-20T04:49:28.079Z,164.00
2018-09-20T04:50:28.157Z,176.00
2018-09-20T04:51:28.143Z,188.00
2018-09-20T04:52:28.189Z,208.00
2018-09-20T04:53:28.273Z,224.00
2018-09-20T04:54:28.197Z,240.00
2018-09-20T04:55:28.170Z,264.00
2018-09-20T04:56:28.195Z,284.00
2018-09-20T04:57:28.200Z,304.00
2018-09-20T04:58:28.223Z,328.00
2018-09-20T04:59:28.234Z,348.00
2018-09-20T05:00:28.212Z,372.00
2018-09-20T05:01:28.305Z,392.00
2018-09-20T05:02:28.248Z,412.00
2018-09-20T05:03:28.274Z,440.00
2018-09-20T05:04:28.307Z,456.00
2018-09-20T05:05:28.315Z,476.00
2018-09-20T05:06:28.341Z,496.00
2018-09-20T05:07:28.319Z,512.00
2018-09-20T05:08:28.311Z,532.00
2018-09-20T05:09:28.381Z,556.00
2018-09-20T05:10:28.368Z,572.00
2018-09-20T05:11:28.699Z,592.00
2018-09-20T05:12:28.430Z,612.00
2018-09-20T05:13:28.376Z,628.00
2018-09-20T05:14:28.372Z,648.00
2018-09-20T05:15:28.509Z,672.00
2018-09-20T05:16:28.412Z,700.00
2018-09-20T05:17:28.437Z,724.00
2018-09-20T05:18:28.428Z,756.00
2018-09-20T05:19:28.497Z,780.00
2018-09-20T05:20:28.434Z,804.00
2018-09-20T05:21:28.442Z,836.00
2018-09-20T05:22:28.485Z,864.00
2018-09-20T05:23:28.572Z,896.00
2018-09-20T05:24:29.009Z,924.00
2018-09-20T05:25:28.538Z,960.00
2018-09-20T05:26:28.548Z,1004.00
2018-09-20T05:27:28.542Z,1044.00
2018-09-20T05:28:28.624Z,1092.00
2018-09-20T05:29:28.559Z,1152.00
2018-09-20T05:30:28.973Z,1184.00
2018-09-20T05:31:28.583Z,1184.00
2018-09-20T05:32:28.588Z,1180.00
2018-09-20T05:33:28.601Z,1204.00
2018-09-20T05:34:28.630Z,1240.00
2018-09-20T05:35:28.660Z,1272.00
2018-09-20T05:36:28.633Z,1300.00
2018-09-20T05:37:28.641Z,1340.00
2018-09-20T05:38:28.646Z,1384.00
2018-09-20T05:39:28.664Z,1428.00
2018-09-20T05:40:28.683Z,1456.00
2018-09-20T05:41:28.733Z,1472.00
2018-09-20T05:42:28.790Z,1516.00
2018-09-20T05:43:28.778Z,1568.00
2018-09-20T05:44:28.759Z,1624.00
2018-09-20T05:45:28.855Z,1660.00
2018-09-20T05:46:28.819Z,1708.00
2018-09-20T05:47:28.799Z,1752.00
2018-09-20T05:48:28.765Z,1808.00
2018-09-20T05:49:28.788Z,1876.00
2018-09-20T05:50:28.792Z,1948.00
2018-09-20T05:51:28.794Z,2020.00
2018-09-20T05:52:28.874Z,2080.00
2018-09-20T05:53:29.076Z,2124.00
2018-09-20T05:54:28.863Z,2156.00
2018-09-20T05:55:28.919Z,2176.00
2018-09-20T05:56:28.879Z,2168.00
2018-09-20T05:57:28.929Z,2196.00
2018-09-20T05:58:28.882Z,2224.00
2018-09-20T05:59:28.960Z,2252.00
2018-09-20T06:00:28.919Z,2292.00
2018-09-20T06:01:28.915Z,2340.00
2018-09-20T06:02:28.939Z,2396.00
2018-09-20T06:03:28.995Z,2472.00
2018-09-20T06:04:28.966Z,2544.00
2018-09-20T06:05:29.063Z,2620.00
2018-09-20T06:06:28.975Z,2700.00
2018-09-20T06:07:29.009Z,2784.00
2018-09-20T06:08:29.040Z,2872.00
2018-09-20T06:09:29.056Z,2964.00
2018-09-20T06:10:29.187Z,3060.00
2018-09-20T06:11:29.073Z,3152.00
2018-09-20T06:12:29.946Z,3224.00
2018-09-20T06:13:29.062Z,3280.00
2018-09-20T06:14:29.134Z,3312.00
2018-09-20T06:15:29.095Z,3304.00
2018-09-20T06:16:29.112Z,3244.00
2018-09-20T06:17:29.677Z,3180.00
2018-09-20T06:18:29.134Z,3148.00
2018-09-20T06:19:29.176Z,3124.00
2018-09-20T06:20:29.234Z,3108.00
2018-09-20T06:21:29.185Z,3108.00
2018-09-20T06:22:29.193Z,3108.00
2018-09-20T06:23:29.189Z,3088.00
2018-09-20T06:24:29.194Z,3080.00
2018-09-20T06:25:29.225Z,3068.00
2018-09-20T06:26:29.209Z,3060.00
2018-09-20T06:27:29.387Z,3048.00
2018-09-20T06:28:29.269Z,3044.00
2018-09-20T06:29:29.304Z,3028.00
2018-09-20T06:30:29.301Z,3004.00
2018-09-20T06:31:29.335Z,2980.00
2018-09-20T06:32:29.394Z,2940.00
2018-09-20T06:33:29.325Z,2920.00
2018-09-20T06:34:29.303Z,2904.00
2018-09-20T06:35:29.547Z,2888.00
2018-09-20T06:36:29.331Z,2868.00
2018-09-20T06:37:29.351Z,2868.00
2018-09-20T06:38:29.403Z,2896.00
2018-09-20T06:39:29.375Z,2900.00
2018-09-20T06:40:29.448Z,2916.00
2018-09-20T06:41:29.446Z,2960.00
2018-09-20T06:42:29.745Z,2996.00
2018-09-20T06:43:29.452Z,3008.00
2018-09-20T06:44:29.454Z,3008.00
2018-09-20T06:45:29.464Z,3000.00
2018-09-20T06:46:29.656Z,2984.00
2018-09-20T06:47:29.473Z,2996.00
2018-09-20T06:48:29.576Z,3000.00
2018-09-20T06:49:29.476Z,3012.00
2018-09-20T06:50:29.527Z,3032.00
2018-09-20T06:51:29.549Z,3076.00
2018-09-20T06:52:29.552Z,3116.00
2018-09-20T06:53:29.533Z,3164.00
2018-09-20T06:54:29.551Z,3192.00
2018-09-20T06:55:29.608Z,3220.00
2018-09-20T06:56:30.052Z,3244.00
2018-09-20T06:57:29.594Z,3264.00
2018-09-20T06:58:29.666Z,3272.00
2018-09-20T06:59:29.746Z,3276.00
2018-09-20T07:00:29.706Z,3264.00
2018-09-20T07:01:29.668Z,3256.00
2018-09-20T07:02:29.695Z,3252.00
2018-09-20T07:03:29.682Z,3248.00
2018-09-20T07:04:29.674Z,3256.00
2018-09-20T07:05:29.700Z,3252.00
2018-09-20T07:06:29.690Z,3272.00
2018-09-20T07:07:29.708Z,3320.00
2018-09-20T07:08:29.869Z,3408.00
2018-09-20T07:09:29.758Z,3516.00
2018-09-20T07:10:29.782Z,3624.00
2018-09-20T07:11:29.798Z,3728.00
2018-09-20T07:12:29.749Z,3832.00
2018-09-20T07:13:29.867Z,3928.00
2018-09-20T07:14:29.843Z,4008.00
2018-09-20T07:15:29.854Z,4060.00
2018-09-20T07:16:29.809Z,4148.00
2018-09-20T07:17:29.838Z,4220.00
2018-09-20T07:18:29.820Z,4308.00
2018-09-20T07:19:29.881Z,4388.00
2018-09-20T07:20:29.897Z,4424.00
2018-09-20T07:21:29.894Z,4432.00
2018-09-20T07:22:29.912Z,4456.00
2018-09-20T07:23:29.906Z,4504.00
2018-09-20T07:24:29.966Z,4548.00
2018-09-20T07:25:29.963Z,4592.00
2018-09-20T07:26:29.950Z,4620.00
2018-09-20T07:27:29.948Z,4644.00
2018-09-20T07:28:29.963Z,4644.00
2018-09-20T07:29:33.946Z,4644.00
2018-09-20T07:30:30.145Z,4660.00
2018-09-20T07:31:30.090Z,4660.00
2018-09-20T07:32:30.011Z,4668.00
2018-09-20T07:33:30.031Z,4672.00
2018-09-20T07:34:30.047Z,4652.00
2018-09-20T07:35:30.095Z,4628.00
2018-09-20T07:36:30.093Z,4604.00
2018-09-20T07:37:30.084Z,4592.00
2018-09-20T07:38:30.098Z,4596.00
2018-09-20T07:39:30.087Z,4608.00
2018-09-20T07:40:30.089Z,4620.00
2018-09-20T07:41:30.509Z,4608.00
2018-09-20T07:42:31.013Z,4592.00
2018-09-20T07:43:30.164Z,4568.00
2018-09-20T07:44:30.209Z,4524.00
2018-09-20T07:45:30.186Z,4472.00
2018-09-20T07:46:30.218Z,4408.00
2018-09-20T07:47:30.230Z,4340.00
2018-09-20T07:48:30.217Z,4272.00
2018-09-20T07:49:30.221Z,4220.00
2018-09-20T07:50:30.228Z,4184.00
2018-09-20T07:51:30.264Z,4168.00
2018-09-20T07:52:30.262Z,4148.00
2018-09-20T07:53:30.295Z,4120.00
2018-09-20T07:54:30.301Z,4100.00
2018-09-20T07:55:30.396Z,4072.00
2018-09-20T07:56:30.430Z,4048.00
2018-09-20T07:57:30.432Z,4036.00
2018-09-20T07:58:30.389Z,4040.00
2018-09-20T07:59:30.371Z,4036.00
2018-09-20T08:00:30.365Z,4036.00
2018-09-20T08:01:30.363Z,4032.00
2018-09-20T08:02:30.426Z,4028.00
2018-09-20T08:03:30.408Z,4032.00
2018-09-20T08:04:30.443Z,4064.00
2018-09-20T08:05:30.399Z,4116.00
2018-09-20T08:06:30.449Z,4156.00
2018-09-20T08:07:30.430Z,4172.00
2018-09-20T08:08:30.561Z,4184.00
2018-09-20T08:09:30.526Z,4188.00
2018-09-20T08:10:30.472Z,4192.00
2018-09-20T08:11:30.604Z,4188.00
2018-09-20T08:12:30.506Z,4160.00
2018-09-20T08:13:30.554Z,4116.00
2018-09-20T08:14:30.555Z,4040.00
2018-09-20T08:15:30.660Z,4016.00
2018-09-20T08:16:30.638Z,3996.00
2018-09-20T08:17:30.568Z,3952.00
2018-09-20T08:18:30.616Z,3900.00
2018-09-20T08:19:30.650Z,3836.00
2018-09-20T08:20:30.682Z,3772.00
2018-09-20T08:21:30.666Z,3720.00
2018-09-20T08:22:30.612Z,3672.00
2018-09-20T08:23:30.670Z,3620.00
2018-09-20T08:24:30.676Z,3576.00
2018-09-20T08:25:30.689Z,3544.00
2018-09-20T08:26:30.733Z,3528.00
2018-09-20T08:27:30.736Z,3372.00
2018-09-20T08:28:30.711Z,3360.00
2018-09-20T08:29:30.743Z,3312.00
2018-09-20T08:30:30.741Z,3276.00
2018-09-20T08:31:30.772Z,3400.00
2018-09-20T08:32:30.784Z,2040.00
2018-09-20T08:33:31.528Z,3356.00
2018-09-20T08:34:30.833Z,3336.00
2018-09-20T08:35:30.803Z,3336.00
2018-09-20T08:36:30.804Z,3296.00
2018-09-20T08:37:30.832Z,3244.00
2018-09-20T08:38:30.826Z,3196.00
2018-09-20T08:39:30.872Z,3152.00
2018-09-20T08:40:30.876Z,3100.00
2018-09-20T08:41:31.150Z,3048.00
2018-09-20T08:42:31.776Z,3016.00
2018-09-20T08:43:31.006Z,2996.00
2018-09-20T08:44:30.958Z,2988.00
2018-09-20T08:45:30.973Z,2988.00
2018-09-20T08:46:30.996Z,3000.00
2018-09-20T08:47:30.941Z,2992.00
2018-09-20T08:48:31.027Z,2976.00
2018-09-20T08:49:30.957Z,2972.00
2018-09-20T08:50:30.993Z,2968.00
2018-09-20T08:51:31.031Z,2976.00
2018-09-20T08:52:31.040Z,2968.00
2018-09-20T08:53:31.081Z,2980.00
2018-09-20T08:54:31.034Z,2992.00
2018-09-20T08:55:31.079Z,3016.00
2018-09-20T08:56:31.342Z,3048.00
2018-09-20T08:57:31.114Z,3088.00
2018-09-20T08:58:31.083Z,3128.00
2018-09-20T08:59:31.131Z,3180.00
2018-09-20T09:00:31.124Z,3240.00
2018-09-20T09:01:31.127Z,3308.00
2018-09-20T09:02:31.182Z,3380.00
2018-09-20T09:03:31.181Z,3476.00
2018-09-20T09:04:31.314Z,3568.00
2018-09-20T09:05:31.323Z,3668.00
2018-09-20T09:06:31.217Z,3752.00
2018-09-20T09:07:31.205Z,3824.00
2018-09-20T09:08:31.634Z,3876.00
2018-09-20T09:09:31.398Z,3928.00
2018-09-20T09:10:31.238Z,3976.00
2018-09-20T09:11:31.599Z,4052.00
2018-09-20T09:12:31.301Z,4136.00
2018-09-20T09:13:31.314Z,4260.00
2018-09-20T09:14:31.313Z,4396.00
2018-09-20T09:15:31.320Z,4540.00
2018-09-20T09:16:31.362Z,4692.00
2018-09-20T09:17:31.337Z,4840.00
2018-09-20T09:18:31.510Z,4948.00
2018-09-20T09:19:31.389Z,5044.00
2018-09-20T09:20:31.389Z,5128.00
2018-09-20T09:21:31.577Z,5192.00
2018-09-20T09:22:31.414Z,5220.00
2018-09-20T09:23:31.427Z,5244.00
2018-09-20T09:24:31.461Z,5288.00
2018-09-20T09:25:31.495Z,5344.00
2018-09-20T09:26:31.448Z,5352.00
2018-09-20T09:27:31.511Z,5296.00
2018-09-20T09:28:31.517Z,5228.00
2018-09-20T09:29:31.506Z,5188.00
2018-09-20T09:30:31.527Z,5084.00
2018-09-20T09:31:31.523Z,5000.00
2018-09-20T09:32:31.749Z,4912.00
2018-09-20T09:33:31.576Z,4852.00
2018-09-20T09:34:31.573Z,4772.00
2018-09-20T09:35:31.565Z,4636.00
2018-09-20T09:36:31.599Z,4448.00
2018-09-20T09:37:31.699Z,4276.00
2018-09-20T09:38:31.672Z,4120.00
2018-09-20T09:39:31.692Z,4028.00
2018-09-20T09:40:31.686Z,3992.00
2018-09-20T09:41:31.646Z,3944.00
2018-09-20T09:42:31.796Z,3936.00
2018-09-20T09:43:31.709Z,3924.00
2018-09-20T09:44:31.751Z,3896.00
2018-09-20T09:45:31.761Z,3852.00
2018-09-20T09:46:31.724Z,3772.00
2018-09-20T09:47:31.752Z,3728.00
2018-09-20T09:48:31.726Z,3732.00
2018-09-20T09:49:31.797Z,3784.00
2018-09-20T09:50:31.788Z,3696.00
2018-09-20T09:51:31.810Z,3628.00
2018-09-20T09:52:31.802Z,3548.00
2018-09-20T09:53:31.803Z,3544.00
2018-09-20T09:54:31.898Z,3572.00
2018-09-20T09:55:31.951Z,3620.00
2018-09-20T09:56:31.868Z,3664.00
2018-09-20T09:57:31.847Z,3696.00
2018-09-20T09:58:31.939Z,3700.00
2018-09-20T09:59:31.915Z,3680.00
2018-09-20T10:00:31.919Z,3668.00
2018-09-20T10:01:31.930Z,3680.00
2018-09-20T10:02:32.004Z,3700.00
2018-09-20T10:03:31.937Z,3724.00
2018-09-20T10:04:31.940Z,3736.00
2018-09-20T10:05:31.949Z,3736.00
2018-09-20T10:06:31.989Z,3676.00
2018-09-20T10:07:32.008Z,3668.00
2018-09-20T10:08:32.008Z,3708.00
2018-09-20T10:09:32.081Z,3712.00
2018-09-20T10:10:32.047Z,3752.00
2018-09-20T10:11:32.090Z,3808.00
2018-09-20T10:12:32.061Z,3840.00
2018-09-20T10:13:32.156Z,3840.00
2018-09-20T10:14:32.094Z,3840.00
2018-09-20T10:15:32.110Z,3788.00
2018-09-20T10:16:32.816Z,3740.00
2018-09-20T10:17:32.243Z,3708.00
2018-09-20T10:18:32.339Z,3720.00
2018-09-20T10:19:32.604Z,3720.00
2018-09-20T10:20:32.426Z,3708.00
2018-09-20T10:21:32.185Z,3732.00
2018-09-20T10:22:32.219Z,3744.00
2018-09-20T10:23:32.217Z,3772.00
2018-09-20T10:24:32.236Z,3812.00
2018-09-20T10:25:32.228Z,3852.00
2018-09-20T10:26:32.328Z,3900.00
2018-09-20T10:27:32.263Z,3928.00
2018-09-20T10:28:32.288Z,3920.00
2018-09-20T10:29:32.361Z,3928.00
2018-09-20T10:30:32.302Z,3924.00
2018-09-20T10:31:32.392Z,3940.00
2018-09-20T10:32:32.345Z,3956.00
2018-09-20T10:33:32.428Z,3948.00
2018-09-20T10:34:32.402Z,3892.00
2018-09-20T10:35:32.409Z,3840.00
2018-09-20T10:36:32.371Z,3792.00
2018-09-20T10:37:32.408Z,3752.00
2018-09-20T10:38:32.418Z,3700.00
2018-09-20T10:39:32.539Z,3624.00
2018-09-20T10:40:32.746Z,3568.00
2018-09-20T10:41:32.461Z,3524.00
2018-09-20T10:42:32.672Z,3468.00
2018-09-20T10:43:32.728Z,3408.00
2018-09-20T10:44:32.634Z,3340.00
2018-09-20T10:45:32.601Z,3304.00
2018-09-20T10:46:32.518Z,3280.00
2018-09-20T10:47:32.536Z,3264.00
2018-09-20T10:48:32.538Z,3244.00
2018-09-20T10:49:32.537Z,3220.00
2018-09-20T10:50:32.589Z,3204.00
2018-09-20T10:51:32.627Z,3208.00
2018-09-20T10:52:32.679Z,3172.00
2018-09-20T10:53:32.643Z,3140.00
2018-09-20T10:54:35.485Z,3104.00
2018-09-20T10:55:32.648Z,3076.00
2018-09-20T10:56:32.654Z,3044.00
2018-09-20T10:57:32.700Z,3016.00
2018-09-20T10:58:32.957Z,2972.00
2018-09-20T10:59:32.719Z,2912.00
2018-09-20T11:00:32.748Z,2864.00
2018-09-20T11:01:32.733Z,2820.00
2018-09-20T11:02:32.788Z,2788.00
2018-09-20T11:03:32.751Z,2756.00
2018-09-20T11:04:32.764Z,2764.00
2018-09-20T11:05:32.832Z,2764.00
2018-09-20T11:06:32.783Z,2740.00
2018-09-20T11:07:32.859Z,2712.00
2018-09-20T11:08:32.971Z,2704.00
2018-09-20T11:09:32.823Z,2736.00
2018-09-20T11:10:33.017Z,2744.00
2018-09-20T11:11:32.991Z,2760.00
2018-09-20T11:12:33.012Z,2776.00
2018-09-20T11:13:32.866Z,2800.00
2018-09-20T11:14:32.889Z,2812.00
2018-09-20T11:15:32.926Z,2828.00
2018-09-20T11:16:32.935Z,2824.00
2018-09-20T11:17:33.004Z,2824.00
2018-09-20T11:18:32.928Z,2832.00
2018-09-20T11:19:32.996Z,2832.00
2018-09-20T11:20:34.888Z,2824.00
2018-09-20T11:21:33.039Z,2828.00
2018-09-20T11:22:33.065Z,2812.00
2018-09-20T11:23:33.029Z,2796.00
2018-09-20T11:24:33.145Z,2784.00
2018-09-20T11:25:33.043Z,2756.00
2018-09-20T11:26:33.122Z,2728.00
2018-09-20T11:27:33.204Z,2692.00
2018-09-20T11:28:33.131Z,2660.00
2018-09-20T11:29:33.164Z,2616.00
2018-09-20T11:30:33.137Z,2544.00
2018-09-20T11:31:33.131Z,2492.00
2018-09-20T11:32:33.152Z,2476.00
2018-09-20T11:33:33.594Z,2476.00
2018-09-20T11:34:33.177Z,2492.00
2018-09-20T11:35:33.998Z,2484.00
2018-09-20T11:36:33.190Z,2456.00
2018-09-20T11:37:33.212Z,2412.00
2018-09-20T11:38:33.215Z,2372.00
2018-09-20T11:39:33.272Z,2348.00
2018-09-20T11:40:33.265Z,2340.00
2018-09-20T11:41:33.251Z,2344.00
2018-09-20T11:42:33.309Z,2380.00
2018-09-20T11:43:33.275Z,2388.00
2018-09-20T11:44:33.461Z,2404.00
2018-09-20T11:45:33.308Z,2420.00
2018-09-20T11:46:33.393Z,2408.00
2018-09-20T11:47:33.349Z,2384.00
2018-09-20T11:48:33.352Z,2364.00
2018-09-20T11:49:33.355Z,2348.00
2018-09-20T11:50:33.406Z,2332.00
2018-09-20T11:51:33.787Z,2304.00
2018-09-20T11:52:33.494Z,2284.00
2018-09-20T11:53:33.541Z,2268.00
2018-09-20T11:54:33.427Z,2276.00
2018-09-20T11:55:33.451Z,2312.00
2018-09-20T11:56:33.453Z,2332.00
2018-09-20T11:57:33.475Z,2324.00
2018-09-20T11:58:33.523Z,2340.00
2018-09-20T11:59:33.529Z,2336.00
2018-09-20T12:00:33.513Z,2344.00
2018-09-20T12:01:33.541Z,2340.00
2018-09-20T12:02:33.534Z,2336.00
2018-09-20T12:03:33.557Z,2328.00
2018-09-20T12:04:33.712Z,2324.00
2018-09-20T12:05:33.556Z,2328.00
2018-09-20T12:06:33.602Z,2340.00
2018-09-20T12:07:33.620Z,2352.00
2018-09-20T12:08:33.595Z,2376.00
2018-09-20T12:09:33.630Z,2372.00
2018-09-20T12:10:33.685Z,2368.00
2018-09-20T12:11:33.675Z,2380.00
2018-09-20T12:12:33.692Z,2444.00
2018-09-20T12:13:33.666Z,2628.00
2018-09-20T12:14:33.760Z,2448.00
2018-09-20T12:15:33.741Z,2404.00
2018-09-20T12:16:33.716Z,2400.00
2018-09-20T12:17:33.759Z,2392.00
2018-09-20T12:18:33.753Z,2388.00
2018-09-20T12:19:33.802Z,2376.00
2018-09-20T12:20:33.805Z,2396.00
2018-09-20T12:21:33.815Z,2392.00
2018-09-20T12:22:34.844Z,2384.00
2018-09-20T12:23:33.813Z,2376.00
2018-09-20T12:24:38.448Z,2384.00
2018-09-20T12:25:34.521Z,2388.00
2018-09-20T12:26:34.904Z,2408.00
2018-09-20T12:27:33.865Z,2416.00
2018-09-20T12:28:33.954Z,2404.00
2018-09-20T12:29:33.911Z,2388.00
2018-09-20T12:30:33.947Z,2380.00
2018-09-20T12:31:34.148Z,2384.00
2018-09-20T12:32:34.129Z,2400.00